Weather at Santorini Airport

Public forecast

Using degrees Celsius for public forecast. Weather courtesy of forecast.io.

Current aviation weather report (METAR) for Santorini Airport

Report is more than 6 hours old.

2022/11/14 15:20 (retrieved 2 years ago)

LGSR 141520Z 34017KT 9999 FEW025 16/11 Q1020

Aviation forecast (TAF) for Santorini Airport

Forecast is more than 12 hours old.

2023/02/22 18:13 (retrieved 1 year ago)

TAF LGSR 221700Z 2218/2318 21012KT 9999 SCT018 BECMG 2306/2308 27010KT